Time;durP1;ratioP1;P1;durP2;ratioP2;P2;SDS_P1;SDS_P2;PMS_P1;PMS_P2;Temp;Humidity;BMP_temperature;BMP_pressure;BME280_temperature;BME280_humidity;BME280_pressure;Samples;Min_cycle;Max_cycle;Signal;HPM_P1;HPM_P2
2022/09/04 00:01:24;;;;;;;13.88;9.65;;;;;;;18.88;66.37;95642.50;5128444;28;20036;-87
2022/09/04 00:03:59;;;;;;;15.00;9.15;;;;;;;18.63;66.47;95611.00;5131986;28;20067;-86
2022/09/04 00:06:32;;;;;;;17.33;10.23;;;;;;;18.62;66.26;95605.94;5126392;28;20031;-86
2022/09/04 00:09:47;;;;;;;15.63;10.15;;;;;;;18.31;65.35;95574.56;5120287;28;20035;-86
2022/09/04 00:12:13;;;;;;;23.42;10.70;;;;;;;18.07;65.95;95558.88;5090138;28;20065;-86
2022/09/04 00:14:44;;;;;;;15.82;10.43;;;;;;;18.74;65.73;95643.72;5113682;28;20042;-86
2022/09/04 00:17:16;;;;;;;16.27;10.82;;;;;;;18.09;67.46;95613.03;5114501;28;20027;-86
2022/09/04 00:19:44;;;;;;;14.68;11.23;;;;;;;17.98;67.89;95617.09;5112796;28;20471;-86
2022/09/04 00:22:33;;;;;;;13.95;10.90;;;;;;;18.18;67.92;95653.31;5112102;28;20027;-86
2022/09/04 00:25:11;;;;;;;14.65;11.23;;;;;;;18.00;68.34;95651.69;5111637;28;20039;-87
2022/09/04 00:27:45;;;;;;;16.90;11.27;;;;;;;17.99;68.00;95634.00;5113126;28;20036;-86
2022/09/04 00:30:20;;;;;;;18.77;11.68;;;;;;;18.24;67.05;95651.28;5111182;28;20027;-87
2022/09/04 00:33:24;;;;;;;21.77;11.15;;;;;;;18.20;67.05;95661.06;5111109;28;20114;-87
2022/09/04 00:35:57;;;;;;;18.63;11.43;;;;;;;17.68;66.17;95556.19;5089415;28;20489;-87
2022/09/04 00:38:35;;;;;;;15.07;10.63;;;;;;;18.25;66.20;95664.41;5110815;28;20126;-87
2022/09/04 00:41:11;;;;;;;15.60;10.23;;;;;;;17.93;65.72;95597.63;5110641;28;20058;-87
2022/09/04 00:43:59;;;;;;;13.73;10.00;;;;;;;18.37;65.37;95656.56;5110950;28;20064;-86
2022/09/04 00:46:50;;;;;;;14.73;10.90;;;;;;;18.43;65.10;95660.69;5110921;28;20032;-87
2022/09/04 00:49:16;;;;;;;;;;;;;;;18.39;65.22;95651.66;5111575;28;20027;-87
2022/09/04 00:52:00;;;;;;;14.10;10.32;;;;;;;18.53;64.88;95656.94;5110736;28;19927;-87
2022/09/04 00:54:40;;;;;;;17.20;9.98;;;;;;;18.47;64.97;95650.91;5110841;28;20130;-87
2022/09/04 00:57:38;;;;;;;17.38;10.65;;;;;;;18.18;65.04;95623.78;5112201;28;20086;-87
2022/09/04 01:00:07;;;;;;;20.63;9.75;;;;;;;18.42;65.06;95651.03;5110259;28;20532;-88
2022/09/04 01:03:01;;;;;;;12.98;9.75;;;;;;;18.12;64.80;95588.25;5111902;28;20035;-86
2022/09/04 01:05:45;;;;;;;15.93;10.60;;;;;;;17.11;65.13;95448.00;5110363;28;20043;-86
2022/09/04 01:08:39;;;;;;;16.25;9.98;;;;;;;18.36;65.50;95648.81;5114318;28;20047;-86
2022/09/04 01:11:17;;;;;;;14.00;9.65;;;;;;;18.31;65.61;95655.09;5115957;28;20035;-86
2022/09/04 01:13:51;;;;;;;14.50;9.90;;;;;;;18.38;65.28;95647.41;5115012;28;20027;-87
2022/09/04 01:16:26;;;;;;;18.13;10.57;;;;;;;17.52;64.78;95522.81;5114830;28;20031;-86
2022/09/04 01:19:01;;;;;;;18.08;10.93;;;;;;;17.99;65.08;95599.09;5116399;28;20039;-85
2022/09/04 01:21:54;;;;;;;13.23;9.93;;;;;;;18.31;65.25;95671.22;5114376;28;20028;-86
2022/09/04 01:24:45;;;;;;;17.83;9.48;;;;;;;18.32;65.20;95666.63;5114662;28;20501;-85
2022/09/04 01:27:22;;;;;;;13.85;10.23;;;;;;;18.30;65.40;95653.53;5114109;28;20080;-86
2022/09/04 01:30:02;;;;;;;15.43;10.60;;;;;;;18.29;65.42;95662.69;5114263;28;20536;-86
2022/09/04 01:32:45;;;;;;;18.67;11.00;;;;;;;18.24;65.40;95660.13;5106468;28;20043;-86
2022/09/04 01:35:29;;;;;;;19.90;10.20;;;;;;;18.26;65.27;95639.13;5111653;28;20027;-86
2022/09/04 01:37:54;;;;;;;15.75;9.68;;;;;;;18.24;65.42;95635.19;5116846;28;20148;-86
2022/09/04 01:40:37;;;;;;;14.20;9.55;;;;;;;18.08;65.25;95600.69;5115094;28;20139;-86
2022/09/04 01:43:07;;;;;;;17.88;10.48;;;;;;;18.01;65.36;95602.25;5115315;28;20031;-86
2022/09/04 01:46:03;;;;;;;16.73;9.95;;;;;;;18.16;65.81;95633.28;5114149;28;20031;-86
2022/09/04 01:48:58;;;;;;;15.93;9.98;;;;;;;18.16;65.95;95635.97;5114579;28;20031;-86
2022/09/04 01:51:50;;;;;;;16.50;10.30;;;;;;;17.79;65.78;95559.38;5114256;28;20077;-86
2022/09/04 01:54:18;;;;;;;21.58;10.63;;;;;;;18.23;65.56;95633.63;5114254;28;20509;-87
2022/09/04 01:57:06;;;;;;;19.50;9.80;;;;;;;18.09;65.82;95639.06;5116330;28;20040;-88
2022/09/04 01:59:40;;;;;;;13.82;10.85;;;;;;;17.27;65.67;95506.28;5114957;28;20451;-88
2022/09/04 02:02:24;;;;;;;16.80;10.30;;;;;;;18.08;65.19;95632.91;5116726;27;20039;-88
2022/09/04 02:04:59;;;;;;;16.23;11.13;;;;;;;17.74;65.17;95571.06;5114574;28;20028;-88
2022/09/04 02:07:55;;;;;;;19.88;10.32;;;;;;;17.99;65.70;95634.00;5114392;28;20059;-88
2022/09/04 02:10:30;;;;;;;23.15;9.43;;;;;;;18.02;65.69;95631.47;5115096;28;20041;-87
2022/09/04 02:13:39;;;;;;;14.85;10.20;;;;;;;17.98;65.83;95635.09;5098494;28;20140;-87
2022/09/04 02:16:13;;;;;;;16.35;10.57;;;;;;;18.00;65.83;95635.56;5109597;28;20042;-87
2022/09/04 02:18:54;;;;;;;19.23;9.52;;;;;;;17.96;65.87;95621.97;5101491;28;20035;-87
2022/09/04 02:21:39;;;;;;;14.75;9.85;;;;;;;18.03;65.92;95629.56;5113131;28;20042;-87
2022/09/04 02:24:38;;;;;;;17.50;10.02;;;;;;;17.87;65.94;95617.66;5114463;28;20519;-87
2022/09/04 02:27:12;;;;;;;17.70;10.23;;;;;;;17.69;67.08;95633.69;5114509;28;20062;-87
2022/09/04 02:29:52;;;;;;;20.33;10.48;;;;;;;17.29;66.27;95546.97;5114669;28;20556;-87
2022/09/04 02:32:34;;;;;;;18.23;11.05;;;;;;;17.89;66.14;95621.63;5113733;28;20039;-87
2022/09/04 02:35:25;;;;;;;22.48;9.15;;;;;;;17.96;66.05;95618.50;5115794;28;20039;-87
2022/09/04 02:38:01;;;;;;;13.65;10.32;;;;;;;17.32;65.99;95513.38;5115517;28;20096;-86
2022/09/04 02:40:51;;;;;;;12.35;8.75;;;;;;;17.89;66.39;95623.50;5113903;28;20044;-87
2022/09/04 02:43:56;;;;;;;16.38;9.23;;;;;;;17.84;66.42;95623.66;5113977;28;20127;-87
2022/09/04 02:46:21;;;;;;;13.27;9.55;;;;;;;17.53;67.07;95623.59;5114354;28;20051;-87
2022/09/04 02:49:07;;;;;;;13.13;9.40;;;;;;;17.53;67.37;95629.75;5114792;28;20034;-86
2022/09/04 02:51:44;;;;;;;17.65;10.07;;;;;;;17.33;68.13;95627.56;5113504;28;20115;-86
2022/09/04 02:54:24;;;;;;;14.82;9.20;;;;;;;17.29;68.54;95630.06;5113088;28;20043;-87
2022/09/04 02:57:08;;;;;;;14.88;11.70;;;;;;;17.25;68.21;95636.31;5113300;28;20031;-86
2022/09/04 03:00:07;;;;;;;16.10;11.10;;;;;;;17.10;68.76;95637.47;5113263;28;20046;-88
2022/09/04 03:03:05;;;;;;;13.15;10.30;;;;;;;16.25;68.71;95498.25;5114683;28;20031;-87
2022/09/04 03:05:44;;;;;;;20.65;13.43;;;;;;;16.80;68.98;95612.16;5057867;28;20039;-87
2022/09/04 03:08:29;;;;;;;23.60;15.55;;;;;;;16.96;69.35;95644.78;5114750;28;20058;-88
2022/09/04 03:11:29;;;;;;;26.83;17.27;;;;;;;17.00;69.42;95644.97;5114301;28;20156;-87
2022/09/04 03:14:05;;;;;;;37.58;19.60;;;;;;;16.99;69.88;95644.19;5109588;28;20040;-88
2022/09/04 03:16:43;;;;;;;32.47;19.90;;;;;;;17.03;69.90;95655.06;5114178;28;20482;-87
2022/09/04 03:19:24;;;;;;;31.42;20.75;;;;;;;16.42;69.57;95541.22;5113234;28;20032;-87
2022/09/04 03:22:00;;;;;;;34.47;21.33;;;;;;;17.12;69.65;95643.34;5113320;28;20063;-88
2022/09/04 03:24:53;;;;;;;41.35;22.58;;;;;;;16.86;69.81;95627.03;5113087;28;20047;-88
2022/09/04 03:27:20;;;;;;;41.88;23.27;;;;;;;17.06;69.49;95616.97;5114191;28;20028;-87
2022/09/04 03:29:56;;;;;;;38.63;23.75;;;;;;;16.69;70.39;95605.47;5112806;28;20050;-88
2022/09/04 03:32:32;;;;;;;44.45;23.80;;;;;;;16.56;70.28;95576.78;5114679;27;20028;-88
2022/09/04 03:35:18;;;;;;;40.97;23.50;;;;;;;17.24;69.60;95646.25;5112370;28;20039;-87
2022/09/04 03:38:07;;;;;;;37.00;22.67;;;;;;;17.14;70.02;95651.06;5113130;28;20131;-88
2022/09/04 03:40:35;;;;;;;45.47;23.33;;;;;;;17.23;69.83;95646.59;5057826;28;20054;-87
2022/09/04 03:43:22;;;;;;;45.58;26.17;;;;;;;17.21;69.63;95660.28;5107060;28;20096;-87
2022/09/04 03:46:06;;;;;;;53.10;25.42;;;;;;;17.19;69.96;95659.78;5112907;28;20088;-88
2022/09/04 03:49:10;;;;;;;49.72;25.77;;;;;;;17.10;70.33;95652.75;5103126;28;20036;-87
2022/09/04 03:52:03;;;;;;;47.40;25.92;;;;;;;16.29;70.19;95532.13;5068127;28;20044;-87
2022/09/04 03:54:45;;;;;;;55.15;27.98;;;;;;;17.27;70.14;95674.34;5104164;28;20036;-88
2022/09/04 03:57:57;;;;;;;36.70;20.25;;;;;;;16.35;70.29;95560.38;5110074;28;20027;-88
2022/09/04 04:00:23;;;;;;;27.90;17.00;;;;;;;15.85;70.08;95489.19;5010843;28;20494;-88
2022/09/04 04:03:06;;;;;;;22.58;15.88;;;;;;;17.21;69.71;95680.94;5025801;28;20029;-88
2022/09/04 04:05:58;;;;;;;23.77;16.15;;;;;;;16.63;69.95;95625.38;5084340;28;20054;-88
2022/09/04 04:09:18;;;;;;;20.95;14.07;;;;;;;16.28;71.44;95629.56;5112001;28;20410;-87
2022/09/04 04:12:03;;;;;;;20.73;14.68;;;;;;;16.48;72.64;95700.63;5107213;28;20050;-88
2022/09/04 04:14:50;;;;;;;21.60;15.70;;;;;;;16.47;73.03;95710.59;5107386;28;20043;-88
2022/09/04 04:17:34;;;;;;;25.77;16.42;;;;;;;16.64;72.47;95717.22;5110111;28;20115;-87
2022/09/04 04:20:15;;;;;;;23.73;14.88;;;;;;;16.78;72.02;95724.16;5113150;28;20052;-87
2022/09/04 04:23:14;;;;;;;21.27;14.68;;;;;;;16.33;72.85;95722.34;5099728;28;20031;-88
2022/09/04 04:26:12;;;;;;;25.83;14.77;;;;;;;16.05;74.52;95724.19;5113289;28;20027;-87
2022/09/04 04:28:37;;;;;;;28.08;15.25;;;;;;;15.74;75.20;95740.75;5104906;28;20032;-87
2022/09/04 04:31:19;;;;;;;22.90;14.00;;;;;;;15.14;75.41;95640.91;5106360;28;20523;-87
2022/09/04 04:34:05;;;;;;;27.13;15.77;;;;;;;15.81;75.13;95735.81;5112475;28;20080;-87
2022/09/04 04:36:41;;;;;;;23.88;15.48;;;;;;;15.62;76.22;95742.31;5112151;28;20112;-87
2022/09/04 04:39:45;;;;;;;25.52;15.35;;;;;;;15.62;76.63;95747.66;5112270;28;20032;-87
2022/09/04 04:42:10;;;;;;;24.80;15.20;;;;;;;15.74;76.26;95750.66;5015512;28;20451;-86
2022/09/04 04:48:13;;;;;;;23.38;14.50;;;;;;;15.80;75.00;95694.13;5117684;28;20067;-87
2022/09/04 04:51:01;;;;;;;23.08;14.80;;;;;;;16.35;74.29;95730.88;5116688;28;20039;-87
2022/09/04 04:53:34;;;;;;;23.85;14.75;;;;;;;15.59;73.57;95598.50;5116175;28;20511;-87
2022/09/04 04:56:22;;;;;;;20.80;15.30;;;;;;;16.68;73.43;95740.47;5116286;28;20040;-87
2022/09/04 04:59:25;;;;;;;22.77;14.45;;;;;;;16.87;72.36;95743.00;5105781;28;20041;-87
2022/09/04 05:02:27;;;;;;;24.50;15.52;;;;;;;16.93;71.66;95749.88;5115564;28;20046;-87
2022/09/04 05:05:05;;;;;;;23.60;14.50;;;;;;;16.15;71.24;95612.44;5116272;28;20077;-87
2022/09/04 05:07:41;;;;;;;26.75;15.55;;;;;;;16.95;72.01;95745.00;5116200;28;20052;-87
2022/09/04 05:10:22;;;;;;;23.40;14.90;;;;;;;17.11;71.61;95740.09;5116644;28;20024;-87
2022/09/04 05:13:20;;;;;;;23.33;15.82;;;;;;;15.92;71.14;95527.03;5105759;28;20572;-87
2022/09/04 05:16:05;;;;;;;21.85;16.08;;;;;;;17.30;70.89;95728.16;5115854;28;20062;-87
2022/09/04 05:18:33;;;;;;;27.30;16.23;;;;;;;17.21;70.55;95697.00;5116634;28;20036;-87
2022/09/04 05:21:23;;;;;;;21.30;14.52;;;;;;;17.52;70.09;95731.97;5116957;28;20096;-87
2022/09/04 05:24:03;;;;;;;22.70;14.80;;;;;;;17.52;70.37;95734.66;5115647;28;20047;-87
2022/09/04 05:26:52;;;;;;;19.87;14.30;;;;;;;17.47;70.09;95730.19;5115469;28;20134;-87
2022/09/04 05:29:29;;;;;;;22.85;15.98;;;;;;;17.67;69.10;95758.47;5115663;28;20032;-87
2022/09/04 05:32:13;;;;;;;20.38;14.27;;;;;;;17.78;68.56;95759.78;5115848;28;20035;-87
2022/09/04 05:35:05;;;;;;;24.88;16.08;;;;;;;17.82;68.34;95750.06;5115230;28;20112;-87
2022/09/04 05:37:54;;;;;;;22.52;15.43;;;;;;;17.91;68.06;95753.59;5119454;28;20035;-87
2022/09/04 05:41:01;;;;;;;23.48;15.65;;;;;;;17.93;67.96;95751.38;5112137;28;20066;-87
2022/09/04 05:43:36;;;;;;;26.67;16.25;;;;;;;17.69;68.22;95758.97;5107539;28;20493;-87
2022/09/04 05:46:31;;;;;;;24.75;17.00;;;;;;;17.18;69.04;95711.78;5116546;28;20024;-87
2022/09/04 05:49:06;;;;;;;24.10;15.98;;;;;;;17.32;69.18;95715.22;5107726;28;20582;-87
2022/09/04 05:51:53;;;;;;;22.00;15.85;;;;;;;17.85;68.19;95757.47;5115777;28;20027;-87
2022/09/04 05:54:30;;;;;;;23.58;15.50;;;;;;;17.33;67.76;95692.69;5112754;28;20478;-87
2022/09/04 05:57:19;;;;;;;22.98;16.35;;;;;;;17.98;67.33;95747.78;5106871;28;20420;-87
2022/09/04 06:00:21;;;;;;;22.17;15.40;;;;;;;17.50;67.23;95670.59;5115031;28;20074;-87
2022/09/04 06:03:07;;;;;;;24.60;16.15;;;;;;;17.89;66.91;95682.53;5016707;28;20045;-87
2022/09/04 06:05:50;;;;;;;27.00;16.92;;;;;;;18.40;66.75;95728.44;5109023;28;20043;-87
2022/09/04 06:08:34;;;;;;;34.38;20.83;;;;;;;18.34;66.77;95721.63;5113145;28;20040;-86
2022/09/04 06:11:33;;;;;;;30.58;20.40;;;;;;;18.38;66.99;95719.13;5108260;28;20118;-87
2022/09/04 06:14:25;;;;;;;36.20;20.92;;;;;;;18.53;66.34;95732.13;5114625;28;20028;-88
2022/09/04 06:17:09;;;;;;;45.38;24.10;;;;;;;18.49;66.60;95725.78;5114832;28;20405;-86
2022/09/04 06:19:50;;;;;;;37.47;22.83;;;;;;;18.36;66.86;95732.06;5115953;28;20031;-87
2022/09/04 06:22:37;;;;;;;38.13;22.85;;;;;;;18.57;66.46;95732.31;5112556;28;20398;-87
2022/09/04 06:25:51;;;;;;;41.75;22.95;;;;;;;18.62;66.10;95740.25;5114148;28;20042;-87
2022/09/04 06:28:34;;;;;;;36.35;22.50;;;;;;;18.59;66.41;95733.59;5018023;28;20036;-88
2022/09/04 06:31:07;;;;;;;34.38;21.80;;;;;;;18.80;65.80;95723.09;5023938;28;20037;-87
2022/09/04 06:34:05;;;;;;;36.45;21.75;;;;;;;18.69;65.97;95706.44;5106545;27;20044;-87
2022/09/04 06:36:41;;;;;;;35.28;21.95;;;;;;;18.81;65.51;95730.03;5130595;28;20031;-87
2022/09/04 06:39:29;;;;;;;35.40;21.80;;;;;;;18.75;65.25;95729.41;5132111;28;20039;-87
2022/09/04 06:42:32;;;;;;;38.67;23.42;;;;;;;18.74;65.62;95727.81;5120438;28;20045;-87
2022/09/04 06:45:22;;;;;;;39.58;23.83;;;;;;;18.95;65.17;95729.91;5115401;28;20126;-87
2022/09/04 06:48:07;;;;;;;32.05;21.48;;;;;;;19.07;64.70;95730.88;5115113;28;20535;-87
2022/09/04 06:50:35;;;;;;;32.00;21.75;;;;;;;19.01;65.17;95728.66;5114427;28;20061;-87
2022/09/04 06:53:14;;;;;;;35.03;23.27;;;;;;;19.09;65.36;95727.88;5114783;28;20024;-87
2022/09/04 06:56:02;;;;;;;35.90;23.33;;;;;;;19.10;65.33;95726.78;5115174;28;20035;-87
2022/09/04 06:59:01;;;;;;;33.17;22.58;;;;;;;19.15;64.62;95732.78;5113135;28;20493;-87
2022/09/04 07:02:03;;;;;;;35.38;22.73;;;;;;;19.22;64.25;95730.44;5113331;28;20054;-87
2022/09/04 07:04:37;;;;;;;46.90;25.88;;;;;;;19.18;64.88;95724.13;5108402;28;20040;-87
2022/09/04 07:07:19;;;;;;;42.83;25.83;;;;;;;19.03;66.09;95726.47;5111519;28;20067;-87
2022/09/04 07:09:48;;;;;;;34.85;23.83;;;;;;;19.03;66.11;95726.47;5112792;28;20039;-87
2022/09/04 07:12:51;;;;;;;38.83;23.23;;;;;;;19.10;65.83;95730.25;5112828;28;20391;-87
2022/09/04 07:15:20;;;;;;;30.25;19.80;;;;;;;19.05;66.29;95719.69;5057770;28;20599;-87
2022/09/04 07:18:11;;;;;;;35.08;18.98;;;;;;;19.12;66.08;95724.59;5113139;28;20036;-88
2022/09/04 07:20:42;;;;;;;24.98;17.48;;;;;;;18.89;66.30;95694.34;5113094;28;20035;-88
2022/09/04 07:23:22;;;;;;;24.23;17.27;;;;;;;19.05;65.79;95741.19;5112749;28;20130;-88
2022/09/04 07:26:16;;;;;;;26.27;17.08;;;;;;;19.15;65.38;95732.00;5114856;28;20043;-88
2022/09/04 07:29:14;;;;;;;28.35;17.38;;;;;;;18.78;65.19;95679.59;5116624;28;20051;-87
2022/09/04 07:31:47;;;;;;;30.73;16.83;;;;;;;18.40;65.11;95618.34;5113290;28;20068;-87
2022/09/04 07:34:24;;;;;;;23.33;16.88;;;;;;;18.37;65.22;95624.34;5111079;28;20051;-87
2022/09/04 07:37:03;;;;;;;25.52;15.45;;;;;;;19.07;65.43;95711.31;5102549;28;20030;-87
2022/09/04 07:40:13;;;;;;;23.55;14.70;;;;;;;19.14;65.16;95727.75;5114104;28;20036;-87
2022/09/04 07:43:04;;;;;;;21.63;15.77;;;;;;;18.85;65.12;95674.56;5024604;28;20099;-87
2022/09/04 07:45:37;;;;;;;19.83;15.70;;;;;;;18.57;64.92;95657.91;5113914;28;20060;-87
2022/09/04 07:48:18;;;;;;;26.08;16.50;;;;;;;19.11;65.02;95747.19;5112755;28;20035;-88
2022/09/04 07:51:04;;;;;;;26.13;17.90;;;;;;;18.76;65.82;95725.63;5112694;28;20035;-88
2022/09/04 07:53:48;;;;;;;26.08;18.02;;;;;;;19.07;65.36;95752.38;5112570;28;20019;-87
2022/09/04 07:56:29;;;;;;;24.02;18.20;;;;;;;19.03;66.00;95750.66;5110710;28;20068;-87
2022/09/04 07:59:17;;;;;;;25.92;17.63;;;;;;;19.12;65.89;95754.94;5104451;28;20067;-87
2022/09/04 08:02:15;;;;;;;29.70;19.65;;;;;;;18.97;66.14;95757.28;5113991;28;20391;-87
2022/09/04 08:05:02;;;;;;;23.67;18.83;;;;;;;18.90;66.76;95744.31;5103637;28;20032;-88
2022/09/04 08:07:37;;;;;;;29.52;19.73;;;;;;;18.94;66.89;95758.69;5096820;28;20067;-88
2022/09/04 08:10:35;;;;;;;31.45;18.63;;;;;;;16.68;66.85;95429.81;5112006;28;20140;-87
2022/09/04 08:13:47;;;;;;;27.63;16.58;;;;;;;18.20;66.46;95653.81;5096533;28;20043;-88
2022/09/04 08:16:34;;;;;;;23.20;17.63;;;;;;;18.92;66.60;95766.25;5111802;28;20050;-88
2022/09/04 08:19:08;;;;;;;26.35;17.48;;;;;;;18.51;66.46;95710.16;5114318;28;20032;-88
2022/09/04 08:21:38;;;;;;;22.77;16.55;;;;;;;18.80;66.30;95756.13;5112118;28;20031;-88
2022/09/04 08:24:40;;;;;;;25.10;16.75;;;;;;;19.05;65.64;95757.31;5111943;28;20032;-87
2022/09/04 08:27:21;;;;;;;23.80;16.10;;;;;;;19.24;65.41;95767.78;5111952;28;20038;-88
2022/09/04 08:30:04;;;;;;;24.77;15.95;;;;;;;18.91;65.20;95718.22;5113430;28;20031;-88
2022/09/04 08:32:35;;;;;;;20.92;15.05;;;;;;;19.35;64.87;95761.00;5111850;28;20036;-88
2022/09/04 08:35:07;;;;;;;;;;;;;;;19.19;65.35;95757.97;5114013;28;20042;-87
2022/09/04 08:37:48;;;;;;;21.17;14.05;;;;;;;18.98;64.91;95680.91;5112539;28;19923;-87
2022/09/04 08:40:36;;;;;;;18.95;13.38;;;;;;;19.58;64.19;95749.03;5110739;28;20111;-87
2022/09/04 08:43:24;;;;;;;17.65;13.70;;;;;;;18.83;63.35;95621.16;5110395;28;20035;-87
2022/09/04 08:46:08;;;;;;;18.60;12.77;;;;;;;19.82;62.75;95748.53;5110611;28;20032;-87
2022/09/04 08:48:52;;;;;;;17.58;12.43;;;;;;;19.90;62.43;95745.06;5110243;28;20031;-87
2022/09/04 08:51:45;;;;;;;21.13;13.60;;;;;;;19.95;62.38;95738.69;5111267;28;20469;-87
2022/09/04 08:54:32;;;;;;;17.38;12.65;;;;;;;19.54;62.06;95680.81;5113085;28;20042;-88
2022/09/04 08:57:45;;;;;;;19.00;13.73;;;;;;;19.89;62.22;95705.78;5112435;28;20321;-87
2022/09/04 09:00:19;;;;;;;18.80;11.95;;;;;;;20.14;62.08;95731.06;5102231;28;20048;-88
2022/09/04 09:02:53;;;;;;;12.85;10.40;;;;;;;20.23;61.30;95725.66;5101913;28;20085;-87
2022/09/04 09:05:44;;;;;;;13.00;8.27;;;;;;;20.22;58.55;95718.69;5112097;28;20063;-88
2022/09/04 09:08:47;;;;;;;15.47;8.40;;;;;;;20.41;58.52;95727.22;5111328;28;20052;-88
2022/09/04 09:11:42;;;;;;;10.90;8.27;;;;;;;20.19;58.89;95673.56;5110984;28;20122;-88
2022/09/04 09:14:23;;;;;;;13.30;8.52;;;;;;;20.64;58.76;95736.66;5110172;28;20119;-88
2022/09/04 09:17:08;;;;;;;19.00;9.80;;;;;;;20.62;58.32;95732.69;5107866;28;20103;-88
2022/09/04 09:19:59;;;;;;;10.07;7.47;;;;;;;20.65;56.67;95727.44;5110630;28;20089;-87
2022/09/04 09:22:47;;;;;;;9.77;7.45;;;;;;;20.85;56.24;95733.22;5111049;28;20058;-87
2022/09/04 09:25:48;;;;;;;13.23;8.10;;;;;;;20.52;56.08;95649.53;5111895;28;20041;-88
2022/09/04 09:28:16;;;;;;;9.30;7.25;;;;;;;21.10;55.18;95722.28;5080224;28;20787;-87
2022/09/04 09:31:01;;;;;;;9.07;7.50;;;;;;;21.20;55.17;95713.06;5115401;28;20032;-87
2022/09/04 09:33:48;;;;;;;10.93;6.97;;;;;;;21.25;55.46;95714.78;5115987;28;20038;-87
2022/09/04 09:36:36;;;;;;;10.82;7.80;;;;;;;21.30;53.93;95709.97;5115671;28;20065;-88
2022/09/04 09:39:20;;;;;;;13.70;7.65;;;;;;;21.38;53.68;95711.03;5115783;28;20031;-87
2022/09/04 09:41:45;;;;;;;9.52;7.43;;;;;;;21.52;54.05;95709.63;5115249;28;20118;-87
2022/09/04 09:44:29;;;;;;;10.90;7.40;;;;;;;21.63;54.81;95709.25;5114829;28;20508;-87
2022/09/04 09:47:14;;;;;;;10.45;7.32;;;;;;;21.77;54.10;95709.75;5114973;28;20641;-87
2022/09/04 09:50:00;;;;;;;9.07;7.13;;;;;;;21.87;53.61;95709.34;5114306;28;20063;-87
2022/09/04 09:52:45;;;;;;;12.10;6.78;;;;;;;21.96;52.71;95701.97;5115552;28;20030;-87
2022/09/04 09:55:17;;;;;;;10.23;7.50;;;;;;;22.06;53.15;95693.44;5114553;28;20050;-88
2022/09/04 09:58:06;;;;;;;12.13;6.55;;;;;;;22.81;50.95;95687.84;5114514;28;20072;-88
2022/09/04 10:00:58;;;;;;;7.85;6.60;;;;;;;24.04;49.38;95679.84;5113839;28;20031;-88
2022/09/04 10:04:10;;;;;;;13.40;7.15;;;;;;;24.74;45.87;95597.91;5084206;28;20592;-87
2022/09/04 10:06:51;;;;;;;;;;;;;;;26.44;42.46;95680.16;5114431;28;20082;-87
2022/09/04 10:09:56;;;;;;;7.68;5.75;;;;;;;27.34;40.53;95643.03;5114201;28;19916;-87
2022/09/04 10:12:35;;;;;;;10.43;5.57;;;;;;;28.68;37.95;95681.94;5074362;28;20044;-87
2022/09/04 10:15:38;;;;;;;6.55;5.15;;;;;;;29.66;35.71;95684.97;5107136;28;20537;-88
2022/09/04 10:18:40;;;;;;;8.50;5.47;;;;;;;29.79;34.12;95628.78;5113693;28;20031;-88
2022/09/04 10:21:43;;;;;;;9.35;4.72;;;;;;;30.73;33.59;95675.88;5109956;28;20043;-88
2022/09/04 10:24:38;;;;;;;5.13;4.60;;;;;;;31.06;32.03;95620.72;5112540;28;20041;-87
2022/09/04 10:27:15;;;;;;;13.52;5.35;;;;;;;31.86;31.86;95657.69;5112692;28;20035;-87
2022/09/04 10:29:41;;;;;;;6.68;5.22;;;;;;;32.19;30.63;95668.88;5113840;28;20034;-88
2022/09/04 10:32:42;;;;;;;6.82;5.28;;;;;;;32.44;30.19;95671.47;5114019;28;20134;-86
2022/09/04 10:35:23;;;;;;;7.57;4.60;;;;;;;32.17;29.98;95605.41;5058519;28;20720;-87
2022/09/04 10:38:08;;;;;;;6.93;4.18;;;;;;;32.68;30.40;95667.03;5114704;28;20180;-87
2022/09/04 10:41:08;;;;;;;5.95;4.50;;;;;;;32.83;30.16;95659.44;5115437;28;20042;-87
2022/09/04 10:43:36;;;;;;;7.60;5.28;;;;;;;32.90;29.60;95664.88;5114425;28;20087;-87
2022/09/04 10:46:09;;;;;;;5.72;4.82;;;;;;;32.81;29.26;95650.81;5113947;28;20052;-87
2022/09/04 10:48:53;;;;;;;6.45;5.22;;;;;;;32.76;29.30;95649.31;5100031;28;20107;-87
2022/09/04 10:51:32;;;;;;;7.60;5.22;;;;;;;32.73;29.62;95636.38;5113466;28;20127;-87
2022/09/04 10:54:06;;;;;;;6.50;4.80;;;;;;;33.00;29.09;95639.28;5113340;28;20489;-87
2022/09/04 10:56:55;;;;;;;12.45;5.55;;;;;;;32.88;28.94;95640.56;5114979;28;20059;-87
2022/09/04 10:59:39;;;;;;;7.00;4.80;;;;;;;33.11;28.52;95630.94;5112812;28;20118;-87
2022/09/04 11:02:35;;;;;;;5.63;3.83;;;;;;;32.83;28.60;95574.28;5113827;28;20031;-87
2022/09/04 11:05:16;;;;;;;6.22;5.53;;;;;;;32.41;28.62;95513.09;5113778;28;20041;-87
2022/09/04 11:08:15;;;;;;;5.38;4.70;;;;;;;33.05;29.11;95618.81;5113601;28;20074;-87
2022/09/04 11:10:50;;;;;;;9.43;5.15;;;;;;;33.23;29.35;95622.19;5114458;28;20027;-87
2022/09/04 11:13:34;;;;;;;6.50;5.03;;;;;;;33.02;28.99;95614.94;5114028;28;20047;-87
2022/09/04 11:16:32;;;;;;;5.47;4.63;;;;;;;32.63;29.18;95592.50;5113427;28;20034;-88
2022/09/04 11:19:32;;;;;;;5.22;4.32;;;;;;;32.92;29.10;95615.81;5114823;28;20073;-88
2022/09/04 11:22:20;;;;;;;6.13;4.72;;;;;;;33.53;28.45;95624.22;5113155;28;20034;-88
2022/09/04 11:25:17;;;;;;;7.15;4.40;;;;;;;33.81;27.87;95610.13;5108310;28;20024;-88
2022/09/04 11:28:19;;;;;;;5.70;4.50;;;;;;;33.71;27.97;95564.28;5115127;28;20027;-87
2022/09/04 11:31:20;;;;;;;6.28;4.32;;;;;;;33.90;28.01;95606.88;5113996;28;20035;-88
2022/09/04 11:34:15;;;;;;;4.68;4.20;;;;;;;33.97;27.93;95609.53;5113518;28;20558;-88
2022/09/04 11:37:00;;;;;;;8.55;4.38;;;;;;;33.69;27.91;95616.16;5113095;28;20509;-88
2022/09/04 11:39:31;;;;;;;4.72;4.07;;;;;;;33.74;27.69;95609.44;5113137;28;20047;-87
2022/09/04 11:42:21;;;;;;;5.50;4.07;;;;;;;33.68;27.55;95598.88;5112863;28;20138;-87
2022/09/04 11:45:27;;;;;;;7.03;4.10;;;;;;;33.24;28.40;95599.03;5102716;28;20469;-86
2022/09/04 11:48:41;;;;;;;10.63;4.25;;;;;;;32.94;28.69;95585.97;5109712;28;20538;-86
2022/09/04 11:51:16;;;;;;;6.05;3.80;;;;;;;33.73;28.55;95592.16;5024104;28;20052;-87
2022/09/04 11:53:48;;;;;;;5.40;4.55;;;;;;;33.47;27.93;95590.13;5115075;28;20102;-87
2022/09/04 11:56:17;;;;;;;8.05;3.67;;;;;;;33.08;27.55;95585.81;5112987;28;20063;-87
2022/09/04 11:59:09;;;;;;;4.68;3.55;;;;;;;32.48;28.22;95572.63;5112973;28;20032;-87
2022/09/04 12:02:02;;;;;;;6.22;3.45;;;;;;;32.40;28.97;95587.59;5119119;28;20457;-87
2022/09/04 12:04:59;;;;;;;5.30;3.95;;;;;;;33.07;28.18;95569.75;5108605;28;20135;-87
2022/09/04 12:08:06;;;;;;;8.65;4.10;;;;;;;32.68;28.15;95567.34;5105465;28;20055;-87
2022/09/04 12:11:00;;;;;;;7.35;4.30;;;;;;;33.28;28.14;95555.78;5107254;28;20070;-87
2022/09/04 12:13:26;;;;;;;7.28;4.40;;;;;;;33.56;27.60;95558.19;5096202;28;20043;-87
2022/09/04 12:16:27;;;;;;;4.97;3.65;;;;;;;34.17;28.25;95557.34;5112430;28;20031;-87
2022/09/04 12:19:23;;;;;;;7.40;3.92;;;;;;;33.44;26.45;95531.22;5014718;28;20041;-87
2022/09/04 12:22:19;;;;;;;3.55;2.80;;;;;;;33.06;25.82;95557.19;5130142;27;20078;-87
2022/09/04 12:25:19;;;;;;;5.78;3.28;;;;;;;31.21;26.15;95325.56;5112667;28;20127;-88
2022/09/04 12:27:53;;;;;;;3.83;2.97;;;;;;;32.87;26.13;95540.13;5071443;28;20541;-88
2022/09/04 12:30:31;;;;;;;6.25;2.90;;;;;;;32.11;27.13;95526.66;5112757;28;20020;-88
2022/09/04 12:32:57;;;;;;;4.18;3.30;;;;;;;31.75;27.74;95559.00;5113691;28;20035;-88
2022/09/04 12:36:13;;;;;;;5.32;3.60;;;;;;;29.80;29.01;95365.97;5113554;28;20032;-88
2022/09/04 12:39:02;;;;;;;4.68;3.38;;;;;;;29.57;30.63;95463.16;5013769;28;20412;-88
2022/09/04 12:41:30;;;;;;;3.60;3.13;;;;;;;29.51;30.99;95556.47;5014313;28;20040;-87
2022/09/04 12:44:22;;;;;;;6.97;4.00;;;;;;;29.20;31.47;95535.25;5084979;28;20048;-87
2022/09/04 12:46:59;;;;;;;5.63;3.28;;;;;;;28.88;32.36;95559.66;5111518;28;20104;-88
2022/09/04 12:50:05;;;;;;;5.65;3.42;;;;;;;28.31;32.36;95510.16;5112331;28;20047;-88